createdAt,value
2022-08-03T00:02:27.280Z,97748.66
2022-08-03T00:04:56.529Z,97747.44
2022-08-03T00:07:25.463Z,97739.00
2022-08-03T00:09:54.401Z,97746.69
2022-08-03T00:12:23.886Z,97750.66
2022-08-03T00:14:52.745Z,97744.28
2022-08-03T00:17:24.957Z,97736.88
2022-08-03T00:19:55.876Z,97736.88
2022-08-03T00:22:25.528Z,97738.94
2022-08-03T00:24:54.781Z,97736.78
2022-08-03T00:27:23.972Z,97744.41
2022-08-03T00:29:59.958Z,97752.66
2022-08-03T00:32:33.553Z,97750.97
2022-08-03T00:35:05.694Z,97758.34
2022-08-03T00:37:41.039Z,97754.72
2022-08-03T00:40:15.650Z,97750.72
2022-08-03T00:42:56.202Z,97753.78
2022-08-03T00:45:27.897Z,97753.19
2022-08-03T00:47:59.389Z,97755.03
2022-08-03T00:50:31.556Z,97754.41
2022-08-03T00:53:02.204Z,97759.63
2022-08-03T00:55:32.142Z,97752.31
2022-08-03T00:58:06.632Z,97750.03
2022-08-03T01:00:39.131Z,97754.78
2022-08-03T01:03:12.018Z,97758.59
2022-08-03T01:05:51.234Z,97754.78
2022-08-03T01:08:30.263Z,97759.50
2022-08-03T01:11:06.810Z,97753.72
2022-08-03T01:14:04.367Z,97754.47
2022-08-03T01:16:45.146Z,97754.53
2022-08-03T01:19:38.087Z,97760.50
2022-08-03T01:22:56.903Z,97757.66
2022-08-03T01:25:37.145Z,97751.78
2022-08-03T01:28:27.330Z,97761.47
2022-08-03T01:31:05.840Z,97749.16
2022-08-03T01:33:41.310Z,97748.72
2022-08-03T01:36:16.270Z,97745.31
2022-08-03T01:38:51.056Z,97750.38
2022-08-03T01:41:24.344Z,97747.72
2022-08-03T01:44:29.090Z,97747.91
2022-08-03T01:46:49.283Z,97743.00
2022-08-03T01:49:19.509Z,97745.75
2022-08-03T01:52:03.317Z,97750.44
2022-08-03T01:54:38.350Z,97748.56
2022-08-03T01:57:08.359Z,97744.19
2022-08-03T01:59:39.045Z,97739.25
2022-08-03T02:02:29.789Z,97742.47
2022-08-03T02:05:02.179Z,97746.03
2022-08-03T02:07:32.258Z,97745.75
2022-08-03T02:10:03.020Z,97738.47
2022-08-03T02:12:34.576Z,97738.03
2022-08-03T02:15:04.423Z,97736.94
2022-08-03T02:17:38.974Z,97737.91
2022-08-03T02:20:14.006Z,97734.53
2022-08-03T02:22:44.906Z,97729.66
2022-08-03T02:25:16.056Z,97740.66
2022-08-03T02:27:53.068Z,97739.41
2022-08-03T02:30:23.999Z,97732.13
2022-08-03T02:32:59.397Z,97735.03
2022-08-03T02:35:32.219Z,97730.34
2022-08-03T02:38:05.902Z,97728.81
2022-08-03T02:40:37.195Z,97723.00
2022-08-03T02:43:13.131Z,97728.50
2022-08-03T02:45:46.726Z,97722.81
2022-08-03T02:48:22.791Z,97726.38
2022-08-03T02:50:56.848Z,97716.53
2022-08-03T02:53:26.666Z,97724.50
2022-08-03T02:55:58.347Z,97729.91
2022-08-03T02:58:30.297Z,97726.53
2022-08-03T03:01:00.834Z,97730.34
2022-08-03T03:03:31.933Z,97725.31
2022-08-03T03:06:06.742Z,97731.28
2022-08-03T03:08:39.516Z,97722.16
2022-08-03T03:11:10.577Z,97727.97
2022-08-03T03:13:41.206Z,97731.03
2022-08-03T03:16:11.142Z,97730.25
2022-08-03T03:18:42.380Z,97730.88
2022-08-03T03:21:12.577Z,97731.47
2022-08-03T03:23:43.611Z,97731.94
2022-08-03T03:26:15.726Z,97726.28
2022-08-03T03:28:45.491Z,97727.50
2022-08-03T03:31:14.587Z,97730.09
2022-08-03T03:33:46.049Z,97728.22
2022-08-03T03:36:15.644Z,97726.38
2022-08-03T03:38:44.806Z,97731.41
2022-08-03T03:41:14.713Z,97723.34
2022-08-03T03:43:44.771Z,97727.66
2022-08-03T03:46:15.102Z,97724.84
2022-08-03T03:48:46.443Z,97729.13
2022-08-03T03:51:16.627Z,97721.75
2022-08-03T03:53:57.778Z,97729.09
2022-08-03T03:56:27.304Z,97728.84
2022-08-03T03:58:56.704Z,97733.72
2022-08-03T04:01:25.927Z,97728.84
2022-08-03T04:03:56.446Z,97739.53
2022-08-03T04:06:43.225Z,97736.78
2022-08-03T04:09:29.899Z,97744.31
2022-08-03T04:12:03.067Z,97753.00
2022-08-03T04:14:37.427Z,97753.31
2022-08-03T04:17:10.331Z,97749.22
2022-08-03T04:19:46.256Z,97754.91
2022-08-03T04:22:21.541Z,97750.56
2022-08-03T04:24:53.669Z,97770.13
2022-08-03T04:27:27.843Z,97763.38
2022-08-03T04:29:59.470Z,97764.38
2022-08-03T04:32:30.232Z,97766.06
2022-08-03T04:35:00.841Z,97762.50
2022-08-03T04:37:40.582Z,97769.88
2022-08-03T04:40:15.712Z,97780.75
2022-08-03T04:42:46.815Z,97773.25
2022-08-03T04:45:17.921Z,97779.81
2022-08-03T04:47:47.621Z,97783.63
2022-08-03T04:50:21.602Z,97788.03
2022-08-03T04:52:51.364Z,97788.47
2022-08-03T04:55:28.890Z,97783.22
2022-08-03T04:57:58.506Z,97779.16
2022-08-03T05:00:28.030Z,97783.72
2022-08-03T05:02:57.288Z,97791.66
2022-08-03T05:05:49.779Z,97798.13
2022-08-03T05:08:20.381Z,97796.78
2022-08-03T05:10:59.408Z,97797.41
2022-08-03T05:13:28.817Z,97784.19
2022-08-03T05:15:57.977Z,97795.09
2022-08-03T05:18:26.864Z,97796.41
2022-08-03T05:20:57.783Z,97795.34
2022-08-03T05:23:26.901Z,97792.78
2022-08-03T05:25:55.895Z,97796.16
2022-08-03T05:28:24.776Z,97797.84
2022-08-03T05:30:53.649Z,97786.16
2022-08-03T05:33:23.254Z,97801.00
2022-08-03T05:36:01.011Z,97802.84
2022-08-03T05:38:37.431Z,97797.50
2022-08-03T05:41:23.668Z,97800.53
2022-08-03T05:43:56.759Z,97797.72
2022-08-03T05:46:26.119Z,97799.25
2022-08-03T05:48:55.196Z,97799.25
2022-08-03T05:51:24.325Z,97800.13
2022-08-03T05:53:54.624Z,97802.72
2022-08-03T05:56:25.955Z,97804.25
2022-08-03T05:58:55.021Z,97801.94
2022-08-03T06:01:24.590Z,97801.44
2022-08-03T06:03:53.838Z,97808.47
2022-08-03T06:06:23.126Z,97811.53
2022-08-03T06:08:54.483Z,97805.25
2022-08-03T06:11:24.965Z,97815.34
2022-08-03T06:13:54.172Z,97816.09
2022-08-03T06:16:23.278Z,97804.13
2022-08-03T06:19:00.213Z,97809.00
2022-08-03T06:21:29.542Z,97809.28
2022-08-03T06:24:02.550Z,97815.38
2022-08-03T06:26:31.906Z,97813.50
2022-08-03T06:29:00.994Z,97817.69
2022-08-03T06:31:33.812Z,97813.03
2022-08-03T06:34:33.553Z,97818.88
2022-08-03T06:36:58.483Z,97813.94
2022-08-03T06:39:32.800Z,97822.06
2022-08-03T06:42:01.646Z,97821.72
2022-08-03T06:44:30.916Z,97818.63
2022-08-03T06:47:00.044Z,97820.16
2022-08-03T06:49:31.289Z,97821.78
2022-08-03T06:52:04.085Z,97818.09
2022-08-03T06:54:37.866Z,97820.38
2022-08-03T06:57:08.486Z,97821.25
2022-08-03T07:00:08.022Z,97816.03
2022-08-03T07:02:28.242Z,97827.47
2022-08-03T07:04:58.818Z,97830.69
2022-08-03T07:07:27.678Z,97826.81
2022-08-03T07:09:59.065Z,97832.53
2022-08-03T07:12:30.765Z,97837.66
2022-08-03T07:15:02.135Z,97837.41
2022-08-03T07:17:33.365Z,97835.78
2022-08-03T07:20:05.274Z,97829.81
2022-08-03T07:22:34.747Z,97831.25
2022-08-03T07:25:06.354Z,97836.59
2022-08-03T07:27:35.677Z,97832.09
2022-08-03T07:30:10.596Z,97831.34
2022-08-03T07:32:50.204Z,97836.75
2022-08-03T07:35:25.290Z,97840.16
2022-08-03T07:37:55.148Z,97836.16
2022-08-03T07:40:27.006Z,97830.81
2022-08-03T07:43:03.319Z,97841.56
2022-08-03T07:45:34.439Z,97837.75
2022-08-03T07:48:06.403Z,97841.00
2022-08-03T07:50:40.852Z,97837.19
2022-08-03T07:53:09.957Z,97825.72
2022-08-03T07:56:11.403Z,97832.50
2022-08-03T07:58:40.734Z,97833.28
2022-08-03T08:01:09.906Z,97835.84
2022-08-03T08:04:02.539Z,97830.50
2022-08-03T08:06:33.411Z,97827.66
2022-08-03T08:09:03.278Z,97834.81
2022-08-03T08:11:38.175Z,97827.41
2022-08-03T08:14:09.870Z,97834.03
2022-08-03T08:16:39.835Z,97825.19
2022-08-03T08:19:08.830Z,97831.66
2022-08-03T08:21:53.754Z,97829.84
2022-08-03T08:24:32.363Z,97831.69
2022-08-03T08:27:05.555Z,97828.50
2022-08-03T08:29:35.103Z,97828.38
2022-08-03T08:32:16.503Z,97830.56
2022-08-03T08:34:45.863Z,97832.63
2022-08-03T08:37:51.011Z,97831.94
2022-08-03T08:40:26.238Z,97829.88
2022-08-03T08:42:58.857Z,97831.66
2022-08-03T08:45:31.897Z,97827.56
2022-08-03T08:48:08.427Z,97823.00
2022-08-03T08:50:43.876Z,97820.13
2022-08-03T08:53:38.364Z,97829.75
2022-08-03T08:56:32.989Z,97821.75
2022-08-03T08:59:04.191Z,97829.50
2022-08-03T09:01:34.004Z,97828.22
2022-08-03T09:04:09.727Z,97823.84
2022-08-03T09:07:18.636Z,97821.13
2022-08-03T09:10:10.862Z,97815.75
2022-08-03T09:12:45.921Z,97810.53
2022-08-03T09:15:23.006Z,97812.56
2022-08-03T09:17:53.993Z,97812.78
2022-08-03T09:20:25.581Z,97813.53
2022-08-03T09:23:51.882Z,97806.44
2022-08-03T09:26:09.253Z,97807.44
2022-08-03T09:29:00.407Z,97810.94
2022-08-03T09:31:41.384Z,97807.31
2022-08-03T09:34:15.777Z,97807.97
2022-08-03T09:36:47.567Z,97811.06
2022-08-03T09:39:18.305Z,97804.06
2022-08-03T09:41:51.682Z,97806.69
2022-08-03T09:44:45.762Z,97809.47
2022-08-03T09:47:44.653Z,97798.16
2022-08-03T09:50:19.256Z,97793.13
2022-08-03T09:52:52.582Z,97798.16
2022-08-03T09:56:34.516Z,97793.34
2022-08-03T09:58:32.924Z,97789.59
2022-08-03T10:01:08.037Z,97785.56
2022-08-03T10:04:05.734Z,97781.72
2022-08-03T10:06:34.864Z,97789.66
2022-08-03T10:09:09.549Z,97787.88
2022-08-03T10:11:41.932Z,97781.50
2022-08-03T10:14:19.462Z,97785.09
2022-08-03T10:16:50.441Z,97778.25
2022-08-03T10:19:25.709Z,97773.19
2022-08-03T10:21:59.542Z,97779.00
2022-08-03T10:24:32.484Z,97770.38
2022-08-03T10:27:13.845Z,97769.56
2022-08-03T10:29:53.328Z,97766.06
2022-08-03T10:32:30.133Z,97766.88
2022-08-03T10:35:20.971Z,97765.84
2022-08-03T10:38:00.535Z,97768.63
2022-08-03T10:40:47.994Z,97760.28
2022-08-03T10:43:28.213Z,97762.97
2022-08-03T10:46:20.860Z,97764.22
2022-08-03T10:48:55.879Z,97761.84
2022-08-03T10:51:32.259Z,97757.31
2022-08-03T10:54:04.078Z,97751.63
2022-08-03T10:57:07.908Z,97742.78
2022-08-03T11:00:04.946Z,97754.03
2022-08-03T11:03:17.015Z,97748.53
2022-08-03T11:05:47.578Z,97746.50
2022-08-03T11:08:24.858Z,97737.69
2022-08-03T11:10:57.277Z,97749.59
2022-08-03T11:13:31.811Z,97747.31
2022-08-03T11:16:07.774Z,97734.59
2022-08-03T11:18:57.507Z,97741.69
2022-08-03T11:21:54.755Z,97742.22
2022-08-03T11:25:02.147Z,97736.88
2022-08-03T11:27:33.652Z,97733.09
2022-08-03T11:30:07.666Z,97731.84
2022-08-03T11:32:59.091Z,97730.59
2022-08-03T11:35:31.405Z,97730.50
2022-08-03T11:38:07.271Z,97727.53
2022-08-03T11:40:55.534Z,97724.34
2022-08-03T11:43:46.805Z,97720.25
2022-08-03T11:46:28.538Z,97718.16
2022-08-03T11:49:10.819Z,97717.59
2022-08-03T11:51:40.960Z,97713.25
2022-08-03T11:54:11.515Z,97717.94
2022-08-03T11:56:50.754Z,97707.91
2022-08-03T11:59:22.352Z,97701.06
2022-08-03T12:01:52.282Z,97697.59
2022-08-03T12:04:21.771Z,97703.31
2022-08-03T12:07:01.409Z,97706.38
2022-08-03T12:09:30.836Z,97697.34
2022-08-03T12:12:01.464Z,97693.13
2022-08-03T12:14:49.417Z,97691.00
2022-08-03T12:17:20.692Z,97690.59
2022-08-03T12:19:50.125Z,97692.47
2022-08-03T12:22:33.781Z,97688.41
2022-08-03T12:25:02.931Z,97689.34
2022-08-03T12:27:34.331Z,97688.22
2022-08-03T12:30:04.836Z,97683.84
2022-08-03T12:32:34.036Z,97681.81
2022-08-03T12:35:05.207Z,97685.66
2022-08-03T12:37:34.786Z,97678.59
2022-08-03T12:40:10.383Z,97685.91
2022-08-03T12:42:41.874Z,97674.66
2022-08-03T12:45:22.368Z,97673.81
2022-08-03T12:47:57.314Z,97671.91
2022-08-03T12:50:31.305Z,97668.66
2022-08-03T12:53:01.828Z,97663.28
2022-08-03T12:55:56.353Z,97660.06
2022-08-03T12:58:38.871Z,97657.34
2022-08-03T13:01:10.879Z,97652.06
2022-08-03T13:03:49.602Z,97644.28
2022-08-03T13:06:21.527Z,97648.97
2022-08-03T13:08:51.909Z,97641.69
2022-08-03T13:11:52.502Z,97642.44
2022-08-03T13:14:20.000Z,97640.28
2022-08-03T13:16:50.455Z,97644.44
2022-08-03T13:19:19.472Z,97639.00
2022-08-03T13:21:53.362Z,97642.28
2022-08-03T13:24:34.116Z,97631.31
2022-08-03T13:28:03.447Z,97633.97
2022-08-03T13:29:56.364Z,97632.66
2022-08-03T13:32:25.863Z,97630.56
2022-08-03T13:34:55.305Z,97628.34
2022-08-03T13:37:25.360Z,97624.53
2022-08-03T13:39:58.893Z,97626.28
2022-08-03T13:42:31.129Z,97621.97
2022-08-03T13:45:02.933Z,97621.94
2022-08-03T13:47:32.037Z,97619.97
2022-08-03T13:50:03.191Z,97623.72
2022-08-03T13:52:34.661Z,97613.06
2022-08-03T13:55:04.616Z,97616.16
2022-08-03T13:58:04.029Z,97602.06
2022-08-03T14:00:28.906Z,97601.41
2022-08-03T14:03:06.510Z,97611.47
2022-08-03T14:05:44.284Z,97612.25
2022-08-03T14:08:14.495Z,97602.50
2022-08-03T14:10:45.880Z,97597.75
2022-08-03T14:13:17.564Z,97596.53
2022-08-03T14:15:51.026Z,97602.13
2022-08-03T14:18:28.445Z,97599.44
2022-08-03T14:21:06.359Z,97599.91
2022-08-03T14:23:37.585Z,97592.31
2022-08-03T14:26:08.169Z,97593.44
2022-08-03T14:28:39.806Z,97589.66
2022-08-03T14:32:09.144Z,97587.03
2022-08-03T14:35:07.517Z,97595.94
2022-08-03T14:37:57.723Z,97588.19
2022-08-03T14:40:35.557Z,97584.66
2022-08-03T14:43:04.798Z,97586.53
2022-08-03T14:45:34.416Z,97584.44
2022-08-03T14:50:27.778Z,97582.59
2022-08-03T14:50:55.539Z,97579.56
2022-08-03T14:53:25.218Z,97567.97
2022-08-03T14:55:54.418Z,97570.03
2022-08-03T14:58:26.850Z,97570.88
2022-08-03T15:00:57.571Z,97575.84
2022-08-03T15:03:28.094Z,97563.38
2022-08-03T15:05:58.357Z,97569.47
2022-08-03T15:08:28.122Z,97558.44
2022-08-03T15:10:57.599Z,97566.22
2022-08-03T15:13:26.957Z,97566.94
2022-08-03T15:15:57.801Z,97560.91
2022-08-03T15:18:28.467Z,97572.09
2022-08-03T15:20:57.523Z,97563.03
2022-08-03T15:23:26.507Z,97561.13
2022-08-03T15:26:02.192Z,97550.72
2022-08-03T15:28:44.298Z,97558.97
2022-08-03T15:31:13.698Z,97552.63
2022-08-03T15:33:50.385Z,97551.97
2022-08-03T15:36:19.748Z,97551.84
2022-08-03T15:38:49.229Z,97555.44
2022-08-03T15:41:18.625Z,97555.00
2022-08-03T15:43:47.900Z,97558.38
2022-08-03T15:46:29.172Z,97546.34
2022-08-03T15:49:00.602Z,97546.34
2022-08-03T15:51:29.834Z,97552.88
2022-08-03T15:53:58.736Z,97549.69
2022-08-03T15:56:27.663Z,97542.41
2022-08-03T15:59:09.648Z,97542.53
2022-08-03T16:01:42.993Z,97540.41
2022-08-03T16:04:13.663Z,97545.75
2022-08-03T16:06:42.504Z,97546.00
2022-08-03T16:09:23.426Z,97542.81
2022-08-03T16:12:01.023Z,97541.53
2022-08-03T16:14:36.653Z,97540.56
2022-08-03T16:17:07.623Z,97535.84
2022-08-03T16:19:38.244Z,97530.06
2022-08-03T16:22:08.770Z,97534.38
2022-08-03T16:24:38.030Z,97535.31
2022-08-03T16:27:17.467Z,97535.31
2022-08-03T16:29:58.581Z,97539.38
2022-08-03T16:32:27.600Z,97525.75
2022-08-03T16:34:57.845Z,97528.88
2022-08-03T16:37:56.066Z,97523.28
2022-08-03T16:40:17.256Z,97523.81
2022-08-03T16:42:48.437Z,97528.13
2022-08-03T16:45:18.269Z,97528.06
2022-08-03T16:47:47.133Z,97530.47
2022-08-03T16:50:31.789Z,97529.75
2022-08-03T16:53:00.798Z,97533.31
2022-08-03T16:55:48.936Z,97535.91
2022-08-03T16:58:19.636Z,97532.44
2022-08-03T17:01:21.135Z,97532.63
2022-08-03T17:04:01.698Z,97525.50
2022-08-03T17:06:38.460Z,97529.34
2022-08-03T17:09:19.110Z,97532.09
2022-08-03T17:11:52.884Z,97531.53
2022-08-03T17:14:28.342Z,97536.59
2022-08-03T17:17:01.849Z,97535.06
2022-08-03T17:19:34.936Z,97534.63
2022-08-03T17:22:13.576Z,97532.94
2022-08-03T17:24:47.953Z,97546.81
2022-08-03T17:28:50.361Z,97545.91
2022-08-03T17:30:12.272Z,97541.16
2022-08-03T17:32:56.827Z,97547.28
2022-08-03T17:35:34.504Z,97555.63
2022-08-03T17:38:13.833Z,97549.72
2022-08-03T17:40:49.998Z,97550.97
2022-08-03T17:44:13.249Z,97546.81
2022-08-03T17:46:12.123Z,97556.31
2022-08-03T17:48:42.284Z,97558.09
2022-08-03T17:51:23.948Z,97562.41
2022-08-03T17:54:18.219Z,97562.84
2022-08-03T17:56:59.161Z,97569.69
2022-08-03T17:59:59.052Z,97577.94
2022-08-03T18:02:59.030Z,97565.28
2022-08-03T18:06:11.163Z,97571.72
2022-08-03T18:08:25.547Z,97566.25
2022-08-03T18:11:14.626Z,97574.38
2022-08-03T18:13:57.880Z,97571.59
2022-08-03T18:16:37.589Z,97579.38
2022-08-03T18:19:13.696Z,97578.19
2022-08-03T18:22:03.569Z,97579.56
2022-08-03T18:24:33.517Z,97576.09
2022-08-03T18:27:05.004Z,97576.41
2022-08-03T18:29:37.365Z,97576.50
2022-08-03T18:32:13.676Z,97585.66
2022-08-03T18:34:53.342Z,97583.41
2022-08-03T18:37:26.271Z,97587.56
2022-08-03T18:39:58.561Z,97600.19
2022-08-03T18:42:32.161Z,97598.50
2022-08-03T18:45:14.947Z,97604.81
2022-08-03T18:48:05.137Z,97605.09
2022-08-03T18:50:39.075Z,97606.94
2022-08-03T18:53:19.671Z,97604.44
2022-08-03T18:56:02.216Z,97612.50
2022-08-03T18:58:41.563Z,97621.16
2022-08-03T19:01:58.091Z,97618.38
2022-08-03T19:04:13.040Z,97621.69
2022-08-03T19:06:46.006Z,97623.22
2022-08-03T19:09:28.162Z,97624.75
2022-08-03T19:12:12.468Z,97629.81
2022-08-03T19:14:56.330Z,97628.53
2022-08-03T19:17:29.526Z,97628.78
2022-08-03T19:20:01.453Z,97636.13
2022-08-03T19:22:32.128Z,97634.88
2022-08-03T19:25:02.779Z,97636.59
2022-08-03T19:27:33.542Z,97638.09
2022-08-03T19:30:20.018Z,97634.31
2022-08-03T19:32:56.254Z,97630.78
2022-08-03T19:35:55.514Z,97638.06
2022-08-03T19:38:28.441Z,97634.56
2022-08-03T19:41:03.234Z,97646.66
2022-08-03T19:43:52.934Z,97640.56
2022-08-03T19:46:31.114Z,97636.22
2022-08-03T19:49:10.676Z,97642.28
2022-08-03T19:51:58.519Z,97645.78
2022-08-03T19:54:39.558Z,97641.19
2022-08-03T19:57:26.817Z,97644.44
2022-08-03T19:59:57.787Z,97643.13
2022-08-03T20:02:29.853Z,97645.09
2022-08-03T20:05:00.708Z,97646.63
2022-08-03T20:07:32.396Z,97648.38
2022-08-03T20:10:04.295Z,97649.88
2022-08-03T20:12:39.455Z,97655.84
2022-08-03T20:15:10.823Z,97659.31
2022-08-03T20:17:54.649Z,97659.06
2022-08-03T20:20:30.677Z,97665.50
2022-08-03T20:23:02.048Z,97669.47
2022-08-03T20:25:38.579Z,97674.72
2022-08-03T20:28:15.231Z,97671.66
2022-08-03T20:30:47.593Z,97668.16
2022-08-03T20:33:19.526Z,97662.56
2022-08-03T20:41:25.353Z,97669.25
2022-08-03T21:40:06.194Z,97695.53
2022-08-03T21:42:35.539Z,97690.31
2022-08-03T21:45:07.354Z,97690.44
2022-08-03T21:47:40.904Z,97693.88
2022-08-03T21:50:12.549Z,97696.97
2022-08-03T21:52:45.072Z,97693.59
2022-08-03T21:55:20.520Z,97694.84
2022-08-03T21:57:54.787Z,97696.06
2022-08-03T22:00:25.263Z,97680.47
2022-08-03T22:03:03.284Z,97691.47
2022-08-03T22:05:46.285Z,97692.94
2022-08-03T22:08:18.003Z,97690.59
2022-08-03T22:10:49.918Z,97696.38
2022-08-03T22:13:44.109Z,97692.50
2022-08-03T22:16:12.870Z,97691.28
2022-08-03T22:18:45.820Z,97701.03
2022-08-03T22:21:54.485Z,97697.50
2022-08-03T22:46:14.399Z,97702.75
2022-08-03T22:48:51.206Z,97700.41
2022-08-03T22:52:15.709Z,97702.31
2022-08-03T23:26:13.467Z,97692.69
2022-08-03T23:38:22.808Z,97704.13
